sensor_id;sensor_type;location;lat;lon;timestamp;temperature;humidity
76878;DHT22;65843;50.692;12.844;2023-01-08T00:00:56;18.10;57.10
76878;DHT22;65843;50.692;12.844;2023-01-08T00:01:57;18.10;57.10
76878;DHT22;65843;50.692;12.844;2023-01-08T00:02:57;18.10;57.00
76878;DHT22;65843;50.692;12.844;2023-01-08T00:03:58;18.10;57.00
76878;DHT22;65843;50.692;12.844;2023-01-08T00:04:59;18.10;57.00
76878;DHT22;65843;50.692;12.844;2023-01-08T00:06:01;18.10;57.00
76878;DHT22;65843;50.692;12.844;2023-01-08T00:07:02;18.10;57.00
76878;DHT22;65843;50.692;12.844;2023-01-08T00:08:03;18.10;56.80
76878;DHT22;65843;50.692;12.844;2023-01-08T00:09:04;18.10;56.90
76878;DHT22;65843;50.692;12.844;2023-01-08T00:10:05;18.10;56.90
76878;DHT22;65843;50.692;12.844;2023-01-08T00:11:06;18.10;56.90
76878;DHT22;65843;50.692;12.844;2023-01-08T00:12:07;18.10;56.80
76878;DHT22;65843;50.692;12.844;2023-01-08T00:13:08;18.10;56.70
76878;DHT22;65843;50.692;12.844;2023-01-08T00:14:10;18.10;56.80
76878;DHT22;65843;50.692;12.844;2023-01-08T00:15:11;18.10;56.70
76878;DHT22;65843;50.692;12.844;2023-01-08T00:16:12;18.10;56.70
76878;DHT22;65843;50.692;12.844;2023-01-08T00:17:14;18.10;56.90
76878;DHT22;65843;50.692;12.844;2023-01-08T00:18:15;18.10;56.40
76878;DHT22;65843;50.692;12.844;2023-01-08T00:19:16;18.10;56.80
76878;DHT22;65843;50.692;12.844;2023-01-08T00:20:16;18.10;57.00
76878;DHT22;65843;50.692;12.844;2023-01-08T00:21:17;18.10;56.50
76878;DHT22;65843;50.692;12.844;2023-01-08T00:22:18;18.10;56.80
76878;DHT22;65843;50.692;12.844;2023-01-08T00:23:19;18.10;56.20
76878;DHT22;65843;50.692;12.844;2023-01-08T00:24:20;18.10;56.50
76878;DHT22;65843;50.692;12.844;2023-01-08T00:25:21;18.10;56.50
76878;DHT22;65843;50.692;12.844;2023-01-08T00:26:22;18.10;56.50
76878;DHT22;65843;50.692;12.844;2023-01-08T00:27:23;18.10;56.70
76878;DHT22;65843;50.692;12.844;2023-01-08T00:28:24;18.10;56.50
76878;DHT22;65843;50.692;12.844;2023-01-08T00:29:25;18.10;56.20
76878;DHT22;65843;50.692;12.844;2023-01-08T00:30:26;18.10;56.30
76878;DHT22;65843;50.692;12.844;2023-01-08T00:31:27;18.10;56.40
76878;DHT22;65843;50.692;12.844;2023-01-08T00:32:28;18.10;56.50
76878;DHT22;65843;50.692;12.844;2023-01-08T00:33:28;18.00;56.20
76878;DHT22;65843;50.692;12.844;2023-01-08T00:34:29;18.00;56.40
76878;DHT22;65843;50.692;12.844;2023-01-08T00:35:30;18.00;56.50
76878;DHT22;65843;50.692;12.844;2023-01-08T00:36:31;18.00;56.50
76878;DHT22;65843;50.692;12.844;2023-01-08T00:37:32;18.00;56.50
76878;DHT22;65843;50.692;12.844;2023-01-08T00:38:33;18.00;56.20
76878;DHT22;65843;50.692;12.844;2023-01-08T00:39:34;18.00;56.60
76878;DHT22;65843;50.692;12.844;2023-01-08T00:40:35;18.00;56.40
76878;DHT22;65843;50.692;12.844;2023-01-08T00:41:36;18.00;56.50
76878;DHT22;65843;50.692;12.844;2023-01-08T00:42:37;18.00;56.20
76878;DHT22;65843;50.692;12.844;2023-01-08T00:43:38;18.00;56.40
76878;DHT22;65843;50.692;12.844;2023-01-08T00:44:39;18.00;56.20
76878;DHT22;65843;50.692;12.844;2023-01-08T00:45:40;18.00;56.50
76878;DHT22;65843;50.692;12.844;2023-01-08T00:46:41;18.00;56.40
76878;DHT22;65843;50.692;12.844;2023-01-08T00:47:42;18.00;56.40
76878;DHT22;65843;50.692;12.844;2023-01-08T00:48:43;18.00;56.30
76878;DHT22;65843;50.692;12.844;2023-01-08T00:49:44;18.00;56.40
76878;DHT22;65843;50.692;12.844;2023-01-08T00:50:45;18.00;56.50
76878;DHT22;65843;50.692;12.844;2023-01-08T00:51:46;18.00;56.30
76878;DHT22;65843;50.692;12.844;2023-01-08T00:52:47;18.00;56.20
76878;DHT22;65843;50.692;12.844;2023-01-08T00:53:48;18.00;56.70
76878;DHT22;65843;50.692;12.844;2023-01-08T00:54:49;18.00;56.50
76878;DHT22;65843;50.692;12.844;2023-01-08T00:55:50;18.00;56.40
76878;DHT22;65843;50.692;12.844;2023-01-08T00:56:50;18.00;56.40
76878;DHT22;65843;50.692;12.844;2023-01-08T00:57:51;18.10;56.70
76878;DHT22;65843;50.692;12.844;2023-01-08T00:58:52;18.10;56.50
76878;DHT22;65843;50.692;12.844;2023-01-08T00:59:53;18.10;56.40
76878;DHT22;65843;50.692;12.844;2023-01-08T01:00:54;18.10;56.10
76878;DHT22;65843;50.692;12.844;2023-01-08T01:01:55;18.10;56.50
76878;DHT22;65843;50.692;12.844;2023-01-08T01:02:56;18.10;56.50
76878;DHT22;65843;50.692;12.844;2023-01-08T01:03:57;18.10;56.50
76878;DHT22;65843;50.692;12.844;2023-01-08T01:04:58;18.10;56.50
76878;DHT22;65843;50.692;12.844;2023-01-08T01:05:59;18.10;56.50
76878;DHT22;65843;50.692;12.844;2023-01-08T01:07:00;18.10;56.30
76878;DHT22;65843;50.692;12.844;2023-01-08T01:08:01;18.10;56.20
76878;DHT22;65843;50.692;12.844;2023-01-08T01:09:02;18.10;56.20
76878;DHT22;65843;50.692;12.844;2023-01-08T01:10:03;18.10;56.20
76878;DHT22;65843;50.692;12.844;2023-01-08T01:11:08;18.10;56.20
76878;DHT22;65843;50.692;12.844;2023-01-08T01:12:09;18.10;56.30
76878;DHT22;65843;50.692;12.844;2023-01-08T01:13:10;18.10;56.20
76878;DHT22;65843;50.692;12.844;2023-01-08T01:14:11;18.10;56.20
76878;DHT22;65843;50.692;12.844;2023-01-08T01:15:13;18.10;56.20
76878;DHT22;65843;50.692;12.844;2023-01-08T01:16:14;18.10;56.10
76878;DHT22;65843;50.692;12.844;2023-01-08T01:17:15;18.10;56.20
76878;DHT22;65843;50.692;12.844;2023-01-08T01:18:16;18.10;56.30
76878;DHT22;65843;50.692;12.844;2023-01-08T01:19:17;18.10;56.20
76878;DHT22;65843;50.692;12.844;2023-01-08T01:20:18;18.10;56.20
76878;DHT22;65843;50.692;12.844;2023-01-08T01:21:28;18.10;55.00
76878;DHT22;65843;50.692;12.844;2023-01-08T01:22:30;18.10;55.70
76878;DHT22;65843;50.692;12.844;2023-01-08T01:23:31;18.10;55.90
76878;DHT22;65843;50.692;12.844;2023-01-08T01:24:32;18.10;55.50
76878;DHT22;65843;50.692;12.844;2023-01-08T01:25:35;18.00;55.30
76878;DHT22;65843;50.692;12.844;2023-01-08T01:26:36;18.00;55.80
76878;DHT22;65843;50.692;12.844;2023-01-08T01:27:37;18.00;55.70
76878;DHT22;65843;50.692;12.844;2023-01-08T01:28:38;18.00;55.90
76878;DHT22;65843;50.692;12.844;2023-01-08T01:29:39;18.00;55.70
76878;DHT22;65843;50.692;12.844;2023-01-08T01:30:40;18.00;54.50
76878;DHT22;65843;50.692;12.844;2023-01-08T01:31:41;18.00;54.60
76878;DHT22;65843;50.692;12.844;2023-01-08T01:32:42;18.00;54.70
76878;DHT22;65843;50.692;12.844;2023-01-08T01:33:43;18.00;54.70
76878;DHT22;65843;50.692;12.844;2023-01-08T01:34:44;18.00;54.60
76878;DHT22;65843;50.692;12.844;2023-01-08T01:35:45;18.00;54.90
76878;DHT22;65843;50.692;12.844;2023-01-08T01:36:46;18.00;54.70
76878;DHT22;65843;50.692;12.844;2023-01-08T01:37:47;18.00;54.80
76878;DHT22;65843;50.692;12.844;2023-01-08T01:38:48;18.00;55.00
76878;DHT22;65843;50.692;12.844;2023-01-08T01:39:49;18.00;55.10
76878;DHT22;65843;50.692;12.844;2023-01-08T01:40:50;18.00;55.00
76878;DHT22;65843;50.692;12.844;2023-01-08T01:41:51;18.00;55.30
76878;DHT22;65843;50.692;12.844;2023-01-08T01:42:53;18.00;55.20
76878;DHT22;65843;50.692;12.844;2023-01-08T01:43:57;18.00;55.10
76878;DHT22;65843;50.692;12.844;2023-01-08T01:44:59;18.00;55.10
76878;DHT22;65843;50.692;12.844;2023-01-08T01:46:00;17.90;55.00
76878;DHT22;65843;50.692;12.844;2023-01-08T01:47:02;18.00;55.50
76878;DHT22;65843;50.692;12.844;2023-01-08T01:48:13;18.00;55.50
76878;DHT22;65843;50.692;12.844;2023-01-08T01:49:17;18.00;55.10
76878;DHT22;65843;50.692;12.844;2023-01-08T01:50:27;17.90;55.20
76878;DHT22;65843;50.692;12.844;2023-01-08T01:51:30;18.00;55.20
76878;DHT22;65843;50.692;12.844;2023-01-08T01:52:33;17.90;55.30
76878;DHT22;65843;50.692;12.844;2023-01-08T01:53:36;18.00;55.50
76878;DHT22;65843;50.692;12.844;2023-01-08T01:54:37;17.90;55.40
76878;DHT22;65843;50.692;12.844;2023-01-08T01:55:39;18.00;54.80
76878;DHT22;65843;50.692;12.844;2023-01-08T01:56:41;18.00;55.50
76878;DHT22;65843;50.692;12.844;2023-01-08T01:57:43;18.00;55.30
76878;DHT22;65843;50.692;12.844;2023-01-08T01:58:45;18.00;55.70
76878;DHT22;65843;50.692;12.844;2023-01-08T01:59:46;18.00;55.40
76878;DHT22;65843;50.692;12.844;2023-01-08T02:00:48;18.00;55.40
76878;DHT22;65843;50.692;12.844;2023-01-08T02:01:49;18.00;55.20
76878;DHT22;65843;50.692;12.844;2023-01-08T02:02:51;18.00;55.40
76878;DHT22;65843;50.692;12.844;2023-01-08T02:03:52;18.00;55.20
76878;DHT22;65843;50.692;12.844;2023-01-08T02:04:53;18.00;55.10
76878;DHT22;65843;50.692;12.844;2023-01-08T02:05:59;18.00;55.10
76878;DHT22;65843;50.692;12.844;2023-01-08T02:08:10;18.00;55.10
76878;DHT22;65843;50.692;12.844;2023-01-08T02:10:17;18.00;55.20
76878;DHT22;65843;50.692;12.844;2023-01-08T02:12:35;18.00;55.10
76878;DHT22;65843;50.692;12.844;2023-01-08T02:13:39;18.00;55.00
76878;DHT22;65843;50.692;12.844;2023-01-08T02:15:57;18.00;54.70
76878;DHT22;65843;50.692;12.844;2023-01-08T02:17:02;18.00;54.50
76878;DHT22;65843;50.692;12.844;2023-01-08T02:18:22;18.00;54.80
76878;DHT22;65843;50.692;12.844;2023-01-08T02:20:41;18.00;55.20
76878;DHT22;65843;50.692;12.844;2023-01-08T02:23:02;18.00;55.40
76878;DHT22;65843;50.692;12.844;2023-01-08T02:24:13;18.00;55.40
76878;DHT22;65843;50.692;12.844;2023-01-08T02:26:37;18.00;55.20
76878;DHT22;65843;50.692;12.844;2023-01-08T02:27:38;18.00;55.20
76878;DHT22;65843;50.692;12.844;2023-01-08T02:29:44;18.00;55.20
76878;DHT22;65843;50.692;12.844;2023-01-08T02:30:46;18.00;55.30
76878;DHT22;65843;50.692;12.844;2023-01-08T02:31:47;18.00;55.00
76878;DHT22;65843;50.692;12.844;2023-01-08T02:32:48;18.00;55.10
76878;DHT22;65843;50.692;12.844;2023-01-08T02:33:49;18.00;55.10
76878;DHT22;65843;50.692;12.844;2023-01-08T02:34:50;17.90;55.10
76878;DHT22;65843;50.692;12.844;2023-01-08T02:35:52;17.90;55.10
76878;DHT22;65843;50.692;12.844;2023-01-08T02:36:54;17.90;55.00
76878;DHT22;65843;50.692;12.844;2023-01-08T02:37:55;17.90;55.00
76878;DHT22;65843;50.692;12.844;2023-01-08T02:40:12;17.90;55.10
76878;DHT22;65843;50.692;12.844;2023-01-08T02:41:14;17.90;55.10
76878;DHT22;65843;50.692;12.844;2023-01-08T02:43:21;17.90;55.10
76878;DHT22;65843;50.692;12.844;2023-01-08T02:44:33;17.90;55.20
76878;DHT22;65843;50.692;12.844;2023-01-08T02:46:36;18.00;55.10
76878;DHT22;65843;50.692;12.844;2023-01-08T02:47:40;18.00;55.00
76878;DHT22;65843;50.692;12.844;2023-01-08T02:48:44;18.00;54.90
76878;DHT22;65843;50.692;12.844;2023-01-08T02:49:45;18.00;54.70
76878;DHT22;65843;50.692;12.844;2023-01-08T02:51:50;17.90;54.80
76878;DHT22;65843;50.692;12.844;2023-01-08T02:53:57;17.90;55.00
76878;DHT22;65843;50.692;12.844;2023-01-08T02:54:59;18.00;54.80
76878;DHT22;65843;50.692;12.844;2023-01-08T02:56:09;17.90;55.00
76878;DHT22;65843;50.692;12.844;2023-01-08T02:57:12;17.90;54.80
76878;DHT22;65843;50.692;12.844;2023-01-08T02:58:14;17.90;54.90
76878;DHT22;65843;50.692;12.844;2023-01-08T02:59:15;17.90;54.80
76878;DHT22;65843;50.692;12.844;2023-01-08T03:00:17;17.90;54.80
76878;DHT22;65843;50.692;12.844;2023-01-08T03:01:19;17.90;54.70
76878;DHT22;65843;50.692;12.844;2023-01-08T03:02:21;17.90;54.70
76878;DHT22;65843;50.692;12.844;2023-01-08T03:03:24;17.90;54.70
76878;DHT22;65843;50.692;12.844;2023-01-08T03:04:26;17.90;54.70
76878;DHT22;65843;50.692;12.844;2023-01-08T03:05:30;17.90;54.80
76878;DHT22;65843;50.692;12.844;2023-01-08T03:06:31;17.90;54.80
76878;DHT22;65843;50.692;12.844;2023-01-08T03:07:32;17.80;54.50
76878;DHT22;65843;50.692;12.844;2023-01-08T03:08:35;17.90;54.40
76878;DHT22;65843;50.692;12.844;2023-01-08T03:09:38;17.90;54.70
76878;DHT22;65843;50.692;12.844;2023-01-08T03:10:39;17.80;54.30
76878;DHT22;65843;50.692;12.844;2023-01-08T03:11:58;17.90;54.70
76878;DHT22;65843;50.692;12.844;2023-01-08T03:13:01;17.90;54.70
76878;DHT22;65843;50.692;12.844;2023-01-08T03:14:08;17.90;54.90
76878;DHT22;65843;50.692;12.844;2023-01-08T03:15:11;17.90;55.00
76878;DHT22;65843;50.692;12.844;2023-01-08T03:16:17;17.90;55.00
76878;DHT22;65843;50.692;12.844;2023-01-08T03:18:51;17.80;55.00
76878;DHT22;65843;50.692;12.844;2023-01-08T03:19:56;17.80;54.70
76878;DHT22;65843;50.692;12.844;2023-01-08T03:20:59;17.80;54.70
76878;DHT22;65843;50.692;12.844;2023-01-08T03:22:00;17.80;54.60
76878;DHT22;65843;50.692;12.844;2023-01-08T03:23:04;17.80;54.50
76878;DHT22;65843;50.692;12.844;2023-01-08T03:24:06;17.80;54.50
76878;DHT22;65843;50.692;12.844;2023-01-08T03:25:08;17.80;54.50
76878;DHT22;65843;50.692;12.844;2023-01-08T03:26:09;17.80;54.60
76878;DHT22;65843;50.692;12.844;2023-01-08T03:27:14;17.80;54.70
76878;DHT22;65843;50.692;12.844;2023-01-08T03:28:23;17.80;54.80
76878;DHT22;65843;50.692;12.844;2023-01-08T03:29:29;17.80;54.70
76878;DHT22;65843;50.692;12.844;2023-01-08T03:30:31;17.90;54.60
76878;DHT22;65843;50.692;12.844;2023-01-08T03:31:32;17.90;54.50
76878;DHT22;65843;50.692;12.844;2023-01-08T03:32:35;17.90;54.60
76878;DHT22;65843;50.692;12.844;2023-01-08T03:33:37;17.90;55.00
76878;DHT22;65843;50.692;12.844;2023-01-08T03:34:39;18.00;54.60
76878;DHT22;65843;50.692;12.844;2023-01-08T03:35:41;18.00;55.00
76878;DHT22;65843;50.692;12.844;2023-01-08T03:36:44;18.00;54.90
76878;DHT22;65843;50.692;12.844;2023-01-08T03:37:48;18.00;54.50
76878;DHT22;65843;50.692;12.844;2023-01-08T03:38:55;18.00;54.80
76878;DHT22;65843;50.692;12.844;2023-01-08T03:40:04;18.00;54.80
76878;DHT22;65843;50.692;12.844;2023-01-08T03:41:10;18.00;54.70
76878;DHT22;65843;50.692;12.844;2023-01-08T03:42:13;18.00;54.60
76878;DHT22;65843;50.692;12.844;2023-01-08T03:43:16;18.00;54.60
76878;DHT22;65843;50.692;12.844;2023-01-08T03:44:17;18.00;54.70
76878;DHT22;65843;50.692;12.844;2023-01-08T03:45:18;18.00;54.70
76878;DHT22;65843;50.692;12.844;2023-01-08T03:46:27;18.00;54.70
76878;DHT22;65843;50.692;12.844;2023-01-08T03:47:28;18.00;54.60
76878;DHT22;65843;50.692;12.844;2023-01-08T03:48:30;18.00;54.60
76878;DHT22;65843;50.692;12.844;2023-01-08T03:49:32;18.00;54.70
76878;DHT22;65843;50.692;12.844;2023-01-08T03:50:34;18.00;54.70
76878;DHT22;65843;50.692;12.844;2023-01-08T03:51:42;18.00;54.60
76878;DHT22;65843;50.692;12.844;2023-01-08T03:52:43;18.00;54.60
76878;DHT22;65843;50.692;12.844;2023-01-08T03:53:44;18.00;54.60
76878;DHT22;65843;50.692;12.844;2023-01-08T03:54:46;18.00;54.60
76878;DHT22;65843;50.692;12.844;2023-01-08T03:55:47;18.00;54.50
76878;DHT22;65843;50.692;12.844;2023-01-08T03:56:48;18.00;54.40
76878;DHT22;65843;50.692;12.844;2023-01-08T03:57:49;18.00;54.20
76878;DHT22;65843;50.692;12.844;2023-01-08T03:58:50;18.00;54.30
76878;DHT22;65843;50.692;12.844;2023-01-08T03:59:51;18.00;54.40
76878;DHT22;65843;50.692;12.844;2023-01-08T04:00:52;18.00;54.10
76878;DHT22;65843;50.692;12.844;2023-01-08T04:01:53;18.00;54.40
76878;DHT22;65843;50.692;12.844;2023-01-08T04:02:54;18.00;54.20
76878;DHT22;65843;50.692;12.844;2023-01-08T04:03:54;18.00;54.00
76878;DHT22;65843;50.692;12.844;2023-01-08T04:04:55;17.90;53.70
76878;DHT22;65843;50.692;12.844;2023-01-08T04:05:59;18.00;54.00
76878;DHT22;65843;50.692;12.844;2023-01-08T04:07:00;18.00;54.20
76878;DHT22;65843;50.692;12.844;2023-01-08T04:08:01;17.90;54.00
76878;DHT22;65843;50.692;12.844;2023-01-08T04:09:02;17.90;54.10
76878;DHT22;65843;50.692;12.844;2023-01-08T04:10:03;17.90;53.90
76878;DHT22;65843;50.692;12.844;2023-01-08T04:11:04;17.90;53.60
76878;DHT22;65843;50.692;12.844;2023-01-08T04:12:05;17.90;53.70
76878;DHT22;65843;50.692;12.844;2023-01-08T04:13:06;17.90;53.70
76878;DHT22;65843;50.692;12.844;2023-01-08T04:14:07;17.90;53.70
76878;DHT22;65843;50.692;12.844;2023-01-08T04:15:08;17.80;53.60
76878;DHT22;65843;50.692;12.844;2023-01-08T04:16:09;17.80;53.60
76878;DHT22;65843;50.692;12.844;2023-01-08T04:17:11;17.80;53.70
76878;DHT22;65843;50.692;12.844;2023-01-08T04:18:12;17.80;53.80
76878;DHT22;65843;50.692;12.844;2023-01-08T04:19:13;17.80;53.50
76878;DHT22;65843;50.692;12.844;2023-01-08T04:20:14;17.80;53.70
76878;DHT22;65843;50.692;12.844;2023-01-08T04:21:15;17.80;53.70
76878;DHT22;65843;50.692;12.844;2023-01-08T04:22:16;17.80;53.50
76878;DHT22;65843;50.692;12.844;2023-01-08T04:23:17;17.80;53.40
76878;DHT22;65843;50.692;12.844;2023-01-08T04:24:18;17.80;53.60
76878;DHT22;65843;50.692;12.844;2023-01-08T04:25:19;17.80;53.60
76878;DHT22;65843;50.692;12.844;2023-01-08T04:26:20;17.80;53.50
76878;DHT22;65843;50.692;12.844;2023-01-08T04:27:21;17.80;53.10
76878;DHT22;65843;50.692;12.844;2023-01-08T04:28:22;17.80;53.00
76878;DHT22;65843;50.692;12.844;2023-01-08T04:29:24;17.80;53.10
76878;DHT22;65843;50.692;12.844;2023-01-08T04:30:25;17.80;53.00
76878;DHT22;65843;50.692;12.844;2023-01-08T04:31:26;17.80;53.30
76878;DHT22;65843;50.692;12.844;2023-01-08T04:32:27;17.80;53.40
76878;DHT22;65843;50.692;12.844;2023-01-08T04:33:27;17.80;53.40
76878;DHT22;65843;50.692;12.844;2023-01-08T04:34:28;17.80;53.40
76878;DHT22;65843;50.692;12.844;2023-01-08T04:35:29;17.80;53.30
76878;DHT22;65843;50.692;12.844;2023-01-08T04:36:30;17.80;53.40
76878;DHT22;65843;50.692;12.844;2023-01-08T04:37:32;17.80;53.40
76878;DHT22;65843;50.692;12.844;2023-01-08T04:38:32;17.80;53.50
76878;DHT22;65843;50.692;12.844;2023-01-08T04:39:33;17.80;53.20
76878;DHT22;65843;50.692;12.844;2023-01-08T04:40:34;17.80;53.50
76878;DHT22;65843;50.692;12.844;2023-01-08T04:41:35;17.80;53.50
76878;DHT22;65843;50.692;12.844;2023-01-08T04:42:36;17.80;53.50
76878;DHT22;65843;50.692;12.844;2023-01-08T04:43:37;17.80;53.70
76878;DHT22;65843;50.692;12.844;2023-01-08T04:44:38;17.80;53.60
76878;DHT22;65843;50.692;12.844;2023-01-08T04:45:39;17.80;53.00
76878;DHT22;65843;50.692;12.844;2023-01-08T04:46:40;17.80;53.50
76878;DHT22;65843;50.692;12.844;2023-01-08T04:47:41;17.80;53.60
76878;DHT22;65843;50.692;12.844;2023-01-08T04:48:42;17.80;54.00
76878;DHT22;65843;50.692;12.844;2023-01-08T04:49:42;17.80;54.00
76878;DHT22;65843;50.692;12.844;2023-01-08T04:50:43;17.90;54.00
76878;DHT22;65843;50.692;12.844;2023-01-08T04:51:44;17.80;53.50
76878;DHT22;65843;50.692;12.844;2023-01-08T04:52:45;17.90;53.80
76878;DHT22;65843;50.692;12.844;2023-01-08T04:53:46;17.90;53.50
76878;DHT22;65843;50.692;12.844;2023-01-08T04:54:47;17.90;53.70
76878;DHT22;65843;50.692;12.844;2023-01-08T04:55:48;17.90;53.70
76878;DHT22;65843;50.692;12.844;2023-01-08T04:56:50;17.90;53.70
76878;DHT22;65843;50.692;12.844;2023-01-08T04:57:51;17.80;53.70
76878;DHT22;65843;50.692;12.844;2023-01-08T04:58:52;17.80;53.50
76878;DHT22;65843;50.692;12.844;2023-01-08T04:59:53;17.80;53.40
76878;DHT22;65843;50.692;12.844;2023-01-08T05:00:54;17.80;53.40
76878;DHT22;65843;50.692;12.844;2023-01-08T05:01:55;17.80;53.00
76878;DHT22;65843;50.692;12.844;2023-01-08T05:02:56;17.80;53.30
76878;DHT22;65843;50.692;12.844;2023-01-08T05:04:00;17.80;52.30
76878;DHT22;65843;50.692;12.844;2023-01-08T05:05:02;17.80;52.90
76878;DHT22;65843;50.692;12.844;2023-01-08T05:06:03;17.80;52.70
76878;DHT22;65843;50.692;12.844;2023-01-08T05:07:04;17.80;52.40
76878;DHT22;65843;50.692;12.844;2023-01-08T05:08:05;17.80;52.90
76878;DHT22;65843;50.692;12.844;2023-01-08T05:09:06;17.80;52.60
76878;DHT22;65843;50.692;12.844;2023-01-08T05:10:07;17.80;52.60
76878;DHT22;65843;50.692;12.844;2023-01-08T05:11:08;17.80;52.60
76878;DHT22;65843;50.692;12.844;2023-01-08T05:12:09;17.70;52.40
76878;DHT22;65843;50.692;12.844;2023-01-08T05:13:10;17.70;52.30
76878;DHT22;65843;50.692;12.844;2023-01-08T05:14:11;17.70;52.40
76878;DHT22;65843;50.692;12.844;2023-01-08T05:15:12;17.70;52.30
76878;DHT22;65843;50.692;12.844;2023-01-08T05:16:13;17.60;52.20
76878;DHT22;65843;50.692;12.844;2023-01-08T05:17:14;17.70;52.40
76878;DHT22;65843;50.692;12.844;2023-01-08T05:18:15;17.60;52.70
76878;DHT22;65843;50.692;12.844;2023-01-08T05:19:16;17.60;52.30
76878;DHT22;65843;50.692;12.844;2023-01-08T05:20:17;17.60;52.30
76878;DHT22;65843;50.692;12.844;2023-01-08T05:21:18;17.60;52.40
76878;DHT22;65843;50.692;12.844;2023-01-08T05:22:19;17.70;52.30
76878;DHT22;65843;50.692;12.844;2023-01-08T05:23:19;17.60;52.70
76878;DHT22;65843;50.692;12.844;2023-01-08T05:24:20;17.60;52.50
76878;DHT22;65843;50.692;12.844;2023-01-08T05:25:21;17.60;52.50
76878;DHT22;65843;50.692;12.844;2023-01-08T05:26:22;17.60;52.20
76878;DHT22;65843;50.692;12.844;2023-01-08T05:27:23;17.60;52.40
76878;DHT22;65843;50.692;12.844;2023-01-08T05:28:24;17.60;52.90
76878;DHT22;65843;50.692;12.844;2023-01-08T05:29:25;17.60;52.70
76878;DHT22;65843;50.692;12.844;2023-01-08T05:30:26;17.60;53.00
76878;DHT22;65843;50.692;12.844;2023-01-08T05:31:28;17.60;52.60
76878;DHT22;65843;50.692;12.844;2023-01-08T05:32:28;17.60;52.20
76878;DHT22;65843;50.692;12.844;2023-01-08T05:33:29;17.60;52.50
76878;DHT22;65843;50.692;12.844;2023-01-08T05:34:30;17.60;52.50
76878;DHT22;65843;50.692;12.844;2023-01-08T05:35:31;17.60;52.40
76878;DHT22;65843;50.692;12.844;2023-01-08T05:36:32;17.60;52.60
76878;DHT22;65843;50.692;12.844;2023-01-08T05:37:33;17.60;52.60
76878;DHT22;65843;50.692;12.844;2023-01-08T05:38:34;17.60;52.70
76878;DHT22;65843;50.692;12.844;2023-01-08T05:39:36;17.60;52.70
76878;DHT22;65843;50.692;12.844;2023-01-08T05:40:37;17.60;52.70
76878;DHT22;65843;50.692;12.844;2023-01-08T05:41:38;17.60;52.70
76878;DHT22;65843;50.692;12.844;2023-01-08T05:42:39;17.60;52.70
76878;DHT22;65843;50.692;12.844;2023-01-08T05:43:39;17.60;52.80
76878;DHT22;65843;50.692;12.844;2023-01-08T05:44:40;17.60;52.70
76878;DHT22;65843;50.692;12.844;2023-01-08T05:45:41;17.60;52.70
76878;DHT22;65843;50.692;12.844;2023-01-08T05:46:42;17.60;52.70
76878;DHT22;65843;50.692;12.844;2023-01-08T05:47:43;17.60;52.80
76878;DHT22;65843;50.692;12.844;2023-01-08T05:48:44;17.60;52.90
76878;DHT22;65843;50.692;12.844;2023-01-08T05:49:45;17.60;52.90
76878;DHT22;65843;50.692;12.844;2023-01-08T05:50:47;17.60;53.00
76878;DHT22;65843;50.692;12.844;2023-01-08T05:51:49;17.60;53.00
76878;DHT22;65843;50.692;12.844;2023-01-08T05:52:50;17.60;52.90
76878;DHT22;65843;50.692;12.844;2023-01-08T05:53:51;17.60;52.80
76878;DHT22;65843;50.692;12.844;2023-01-08T05:54:51;17.60;52.80
76878;DHT22;65843;50.692;12.844;2023-01-08T05:55:57;17.60;52.80
76878;DHT22;65843;50.692;12.844;2023-01-08T05:56:58;17.60;52.70
76878;DHT22;65843;50.692;12.844;2023-01-08T05:58:03;17.60;52.70
76878;DHT22;65843;50.692;12.844;2023-01-08T05:59:04;17.60;52.70
76878;DHT22;65843;50.692;12.844;2023-01-08T06:00:05;17.60;52.80
76878;DHT22;65843;50.692;12.844;2023-01-08T06:01:11;17.60;53.10
76878;DHT22;65843;50.692;12.844;2023-01-08T06:02:12;17.60;52.70
76878;DHT22;65843;50.692;12.844;2023-01-08T06:03:13;17.60;52.80
76878;DHT22;65843;50.692;12.844;2023-01-08T06:04:14;17.60;52.80
76878;DHT22;65843;50.692;12.844;2023-01-08T06:05:15;17.60;53.00
76878;DHT22;65843;50.692;12.844;2023-01-08T06:06:16;17.60;52.90
76878;DHT22;65843;50.692;12.844;2023-01-08T06:07:17;17.60;52.70
76878;DHT22;65843;50.692;12.844;2023-01-08T06:08:18;17.60;52.60
76878;DHT22;65843;50.692;12.844;2023-01-08T06:09:19;17.60;52.50
76878;DHT22;65843;50.692;12.844;2023-01-08T06:10:20;17.50;52.40
76878;DHT22;65843;50.692;12.844;2023-01-08T06:11:21;17.50;52.30
76878;DHT22;65843;50.692;12.844;2023-01-08T06:12:22;17.50;52.20
76878;DHT22;65843;50.692;12.844;2023-01-08T06:13:23;17.50;52.30
76878;DHT22;65843;50.692;12.844;2023-01-08T06:14:24;17.50;52.20
76878;DHT22;65843;50.692;12.844;2023-01-08T06:15:25;17.50;52.30
76878;DHT22;65843;50.692;12.844;2023-01-08T06:16:26;17.50;52.00
76878;DHT22;65843;50.692;12.844;2023-01-08T06:17:26;17.50;52.20
76878;DHT22;65843;50.692;12.844;2023-01-08T06:18:28;17.50;52.20
76878;DHT22;65843;50.692;12.844;2023-01-08T06:19:29;17.50;52.20
76878;DHT22;65843;50.692;12.844;2023-01-08T06:20:30;17.50;52.20
76878;DHT22;65843;50.692;12.844;2023-01-08T06:21:31;17.50;52.20
76878;DHT22;65843;50.692;12.844;2023-01-08T06:22:32;17.50;52.20
76878;DHT22;65843;50.692;12.844;2023-01-08T06:23:33;17.50;52.20
76878;DHT22;65843;50.692;12.844;2023-01-08T06:24:34;17.50;52.10
76878;DHT22;65843;50.692;12.844;2023-01-08T06:25:35;17.50;52.30
76878;DHT22;65843;50.692;12.844;2023-01-08T06:26:36;17.50;52.30
76878;DHT22;65843;50.692;12.844;2023-01-08T06:27:37;17.50;52.20
76878;DHT22;65843;50.692;12.844;2023-01-08T06:28:38;17.50;52.40
76878;DHT22;65843;50.692;12.844;2023-01-08T06:29:39;17.50;52.30
76878;DHT22;65843;50.692;12.844;2023-01-08T06:30:40;17.50;52.20
76878;DHT22;65843;50.692;12.844;2023-01-08T06:31:41;17.50;52.40
76878;DHT22;65843;50.692;12.844;2023-01-08T06:32:42;17.50;52.20
76878;DHT22;65843;50.692;12.844;2023-01-08T06:33:43;17.50;52.10
76878;DHT22;65843;50.692;12.844;2023-01-08T06:34:44;17.50;52.10
76878;DHT22;65843;50.692;12.844;2023-01-08T06:35:45;17.50;52.20
76878;DHT22;65843;50.692;12.844;2023-01-08T06:36:45;17.50;52.20
76878;DHT22;65843;50.692;12.844;2023-01-08T06:37:46;17.50;52.20
76878;DHT22;65843;50.692;12.844;2023-01-08T06:38:47;17.50;52.20
76878;DHT22;65843;50.692;12.844;2023-01-08T06:39:48;17.50;52.20
76878;DHT22;65843;50.692;12.844;2023-01-08T06:40:49;17.50;52.20